Andover, New Jersey
Current Conditions -  °F | °C
As of 9:15 AM on Tuesday 27 Jan 2015 (Local Time) from KFWN Reporting Station
Light Snow Light Snow  
Wind Chill: 11°   Ceiling: 2200
Heat Index: 21°   Visibility: 2mi
Dew Point: 10°   Wind: 9mph
Humidity: 63%   Direction: 350°N
Pressure: 29.73"   Gusts: NA
Location:  40.99°N, 74.74°W
Report Text: KFWN 271415Z AUTO 35008KT 2SM -SN OVC022 M06/M12 A2973 RMK AO2 P0000 T10611122
Loading
Personal Weather Stations






























Interactive Weather Map New forecast layout! Learn more

10-Day Weather Forecast

Advertisements
Track Severe Weather on mobile